createdAt,value
2022-11-05T00:00:02.427Z,0
2022-11-05T00:16:02.302Z,0
2022-11-05T00:31:02.322Z,0
2022-11-05T00:46:02.316Z,0
2022-11-05T01:00:02.628Z,0
2022-11-05T01:16:02.862Z,0
2022-11-05T01:31:02.303Z,0
2022-11-05T01:46:02.286Z,0
2022-11-05T02:00:02.353Z,0
2022-11-05T02:16:02.317Z,0
2022-11-05T02:31:02.318Z,0
2022-11-05T02:46:02.333Z,0
2022-11-05T03:00:02.329Z,0
2022-11-05T03:16:02.329Z,0
2022-11-05T03:31:02.310Z,0
2022-11-05T03:46:02.308Z,0
2022-11-05T04:00:02.306Z,0
2022-11-05T04:16:02.304Z,0
2022-11-05T04:31:02.305Z,0
2022-11-05T04:46:02.282Z,0
2022-11-05T05:00:02.417Z,0
2022-11-05T05:16:02.309Z,0
2022-11-05T05:31:02.289Z,0
2022-11-05T05:46:02.304Z,0
2022-11-05T06:00:02.288Z,0
2022-11-05T06:16:03.016Z,5
2022-11-05T06:31:02.312Z,17
2022-11-05T06:46:02.262Z,27
2022-11-05T07:00:07.356Z,35
2022-11-05T07:16:02.280Z,59
2022-11-05T07:31:02.248Z,80
2022-11-05T07:46:03.122Z,101
2022-11-05T08:00:02.251Z,112
2022-11-05T08:16:02.245Z,103
2022-11-05T08:31:02.225Z,98
2022-11-05T08:46:02.288Z,104
2022-11-05T09:00:02.559Z,114
2022-11-05T09:16:02.264Z,130
2022-11-05T09:31:02.258Z,188
2022-11-05T09:46:02.357Z,190
2022-11-05T10:00:02.265Z,210
2022-11-05T10:16:02.246Z,260
2022-11-05T10:31:02.231Z,264
2022-11-05T10:46:02.267Z,249
2022-11-05T11:00:02.267Z,202
2022-11-05T11:16:02.229Z,202
2022-11-05T11:31:02.260Z,251
2022-11-05T11:46:06.917Z,301
2022-11-05T12:00:10.059Z,300
2022-11-05T12:16:02.262Z,259
2022-11-05T12:31:02.237Z,270
2022-11-05T12:46:02.283Z,265
2022-11-05T13:00:02.547Z,215
2022-11-05T13:16:02.247Z,310
2022-11-05T13:31:02.261Z,288
2022-11-05T13:46:05.955Z,243
2022-11-05T14:00:02.238Z,205
2022-11-05T14:16:02.292Z,163
2022-11-05T14:31:02.291Z,92
2022-11-05T14:46:02.286Z,74
2022-11-05T15:00:02.623Z,34
2022-11-05T15:16:02.274Z,15
2022-11-05T15:31:02.301Z,10
2022-11-05T15:46:02.285Z,5
2022-11-05T16:00:02.430Z,0
2022-11-05T16:16:02.243Z,0
2022-11-05T16:31:02.291Z,0
2022-11-05T16:46:02.242Z,0
2022-11-05T17:00:02.295Z,0
2022-11-05T17:16:02.245Z,0
2022-11-05T17:31:02.244Z,0
2022-11-05T17:46:04.840Z,0
2022-11-05T18:00:02.264Z,0
2022-11-05T18:16:02.230Z,0
2022-11-05T18:31:02.265Z,0
2022-11-05T18:46:02.248Z,0
2022-11-05T19:00:02.571Z,0
2022-11-05T19:16:02.265Z,0
2022-11-05T19:31:02.238Z,0
2022-11-05T19:46:02.216Z,0
2022-11-05T20:00:02.243Z,0
2022-11-05T20:16:02.252Z,0
2022-11-05T20:31:02.240Z,0
2022-11-05T20:46:02.242Z,0
2022-11-05T21:00:02.272Z,0
2022-11-05T21:16:02.257Z,0
2022-11-05T21:31:02.257Z,0
2022-11-05T21:46:02.218Z,0
2022-11-05T22:00:02.248Z,0
2022-11-05T22:16:02.192Z,0
2022-11-05T22:31:02.228Z,0
2022-11-05T22:46:04.753Z,0
2022-11-05T23:00:02.282Z,0
2022-11-05T23:16:02.222Z,0
2022-11-05T23:31:02.213Z,0
2022-11-05T23:46:02.220Z,0
